Time,TemperatureF,DewpointF,PressureIn,WindDirection,WindDirectionDegrees,WindSpeedMPH,WindSpeedGustMPH,Humidity,HourlyPrecipIn,Conditions,Clouds,dailyrainin,SolarRadiationWatts/m^2,SoftwareType,DateUTC
2013-09-11 00:03:00,64.7,64.7,30.01,ENE,68,0.0,0.0,100,0.00,,FEW012,0.16,0.00,VWS V14.01,2013-09-11 04:03:00,
2013-09-11 00:12:00,64.5,64.5,30.01,ENE,68,0.0,0.0,100,0.00,,FEW012,0.00,0.00,VWS V14.01,2013-09-11 04:12:00,
2013-09-11 00:22:00,64.5,64.5,30.01,ENE,68,0.0,0.0,100,0.00,,FEW012,0.00,0.00,VWS V14.01,2013-09-11 04:22:00,
2013-09-11 00:32:00,64.3,64.3,30.01,ENE,68,0.0,0.0,100,0.00,,FEW012,0.00,0.00,VWS V14.01,2013-09-11 04:32:00,
2013-09-11 00:42:00,64.7,64.7,30.01,ENE,68,0.0,0.0,100,0.00,,FEW012,0.00,0.00,VWS V14.01,2013-09-11 04:42:00,
2013-09-11 00:52:00,64.8,64.8,30.00,ENE,68,0.0,0.0,100,0.00,,FEW012,0.00,0.00,VWS V14.01,2013-09-11 04:52:00,
2013-09-11 01:02:00,65.0,65.0,30.00,ENE,68,0.0,0.0,100,0.00,,OVC010,0.00,0.00,VWS V14.01,2013-09-11 05:02:00,
2013-09-11 01:12:00,65.0,65.0,30.00,ENE,68,0.0,0.0,100,0.00,,OVC010,0.00,0.00,VWS V14.01,2013-09-11 05:12:00,
2013-09-11 01:22:00,65.0,65.0,30.00,ENE,68,0.0,0.0,100,0.00,,OVC010,0.00,0.00,VWS V14.01,2013-09-11 05:22:00,
2013-09-11 01:32:00,65.0,65.0,29.99,ENE,68,0.0,0.0,100,0.00,,OVC010,0.00,0.00,VWS V14.01,2013-09-11 05:32:00,
2013-09-11 01:42:00,65.2,65.2,29.99,ENE,68,0.0,0.0,100,0.00,,OVC010,0.00,0.00,VWS V14.01,2013-09-11 05:42:00,
2013-09-11 01:52:00,65.3,65.3,29.99,ENE,68,0.0,0.0,100,0.00,,OVC010,0.00,0.00,VWS V14.01,2013-09-11 05:52:00,
2013-09-11 02:02:00,65.0,65.0,29.99,ENE,68,0.0,0.0,100,0.00,,OVC010,0.00,0.00,VWS V14.01,2013-09-11 06:02:00,
2013-09-11 02:12:00,64.7,64.7,29.99,ENE,68,0.0,0.0,100,0.00,,OVC010,0.00,0.00,VWS V14.01,2013-09-11 06:12:00,
2013-09-11 02:22:00,64.8,64.8,29.99,ENE,68,0.0,0.0,100,0.00,,OVC010,0.00,0.00,VWS V14.01,2013-09-11 06:22:00,
2013-09-11 02:33:00,64.8,64.8,29.99,ENE,68,0.0,0.0,100,0.00,,OVC010,0.00,0.00,VWS V14.01,2013-09-11 06:33:00,
2013-09-11 02:42:00,65.2,65.2,29.99,ENE,68,0.0,0.0,100,0.00,,OVC010,0.00,0.00,VWS V14.01,2013-09-11 06:42:00,
2013-09-11 02:52:00,65.0,65.0,29.99,ENE,68,0.0,0.0,100,0.00,,OVC010,0.00,0.00,VWS V14.01,2013-09-11 06:52:00,
2013-09-11 03:02:00,65.0,65.0,29.99,ENE,68,0.0,0.0,100,0.00,,OVC008,0.00,0.00,VWS V14.01,2013-09-11 07:02:00,
2013-09-11 03:12:00,65.0,65.0,29.99,ENE,68,0.0,0.0,100,0.00,,OVC008,0.00,0.00,VWS V14.01,2013-09-11 07:12:00,
2013-09-11 03:22:00,65.0,65.0,29.99,ENE,68,0.0,0.0,100,0.00,,OVC008,0.00,0.00,VWS V14.01,2013-09-11 07:22:00,
2013-09-11 03:32:00,65.3,65.3,29.99,ENE,68,0.0,0.0,100,0.00,,OVC008,0.00,0.00,VWS V14.01,2013-09-11 07:32:00,
2013-09-11 03:42:00,65.3,65.3,29.99,ENE,68,0.0,0.0,100,0.00,,OVC008,0.00,0.00,VWS V14.01,2013-09-11 07:42:00,
2013-09-11 03:52:00,65.5,65.5,29.98,ENE,68,0.0,0.0,100,0.00,,OVC008,0.00,0.00,VWS V14.01,2013-09-11 07:52:00,
2013-09-11 04:03:00,65.5,65.5,29.98,ENE,68,0.0,0.0,100,0.00,,OVC006,0.00,0.00,VWS V14.01,2013-09-11 08:03:00,
2013-09-11 04:12:00,65.5,65.5,29.98,ENE,68,0.0,0.0,100,0.00,,OVC006,0.00,0.00,VWS V14.01,2013-09-11 08:12:00,
2013-09-11 04:22:00,65.8,65.8,29.98,ENE,68,0.0,0.0,100,0.00,,OVC006,0.00,0.00,VWS V14.01,2013-09-11 08:22:00,
2013-09-11 04:32:00,65.8,65.8,29.99,ENE,68,0.0,0.0,100,0.00,,OVC006,0.00,0.00,VWS V14.01,2013-09-11 08:32:00,
2013-09-11 04:42:00,66.0,66.0,29.99,ENE,68,0.0,0.0,100,0.00,,OVC006,0.00,0.00,VWS V14.01,2013-09-11 08:42:00,
2013-09-11 04:52:00,66.0,66.0,29.99,ENE,68,0.0,0.0,100,0.00,,OVC006,0.00,0.00,VWS V14.01,2013-09-11 08:52:00,
2013-09-11 05:03:00,66.3,66.3,29.99,ENE,68,0.0,0.0,100,0.00,,OVC005,0.00,0.00,VWS V14.01,2013-09-11 09:03:00,
2013-09-11 05:12:00,66.3,66.3,29.99,ENE,68,0.0,0.0,100,0.00,,OVC005,0.00,0.00,VWS V14.01,2013-09-11 09:12:00,
2013-09-11 05:22:00,66.4,66.4,29.99,ENE,68,0.0,0.0,100,0.00,,OVC005,0.00,0.00,VWS V14.01,2013-09-11 09:22:00,
2013-09-11 05:32:00,66.1,66.1,29.99,ENE,68,0.0,0.0,100,0.00,,OVC005,0.00,0.00,VWS V14.01,2013-09-11 09:32:00,
2013-09-11 05:42:00,66.4,66.4,29.99,ENE,68,0.0,0.0,100,0.00,,OVC005,0.00,0.00,VWS V14.01,2013-09-11 09:42:00,
2013-09-11 05:52:00,66.3,66.3,29.99,ENE,68,0.0,0.0,100,0.00,,OVC005,0.00,0.00,VWS V14.01,2013-09-11 09:52:00,
2013-09-11 06:02:00,66.3,66.3,30.00,ENE,68,0.0,0.0,100,0.00,,OVC004,0.00,0.00,VWS V14.01,2013-09-11 10:02:00,
2013-09-11 06:12:00,66.3,66.3,30.00,ENE,68,0.0,0.0,100,0.00,,OVC004,0.00,0.00,VWS V14.01,2013-09-11 10:12:00,
2013-09-11 06:23:00,66.4,66.4,30.00,ENE,68,0.0,0.0,100,0.00,,OVC004,0.00,0.00,VWS V14.01,2013-09-11 10:23:00,
2013-09-11 06:32:00,66.8,66.8,30.00,ENE,68,0.0,0.0,100,0.00,,OVC004,0.00,0.00,VWS V14.01,2013-09-11 10:32:00,
2013-09-11 06:42:00,67.1,67.1,30.00,ENE,68,0.0,0.0,100,0.00,,OVC004,0.00,7.00,VWS V14.01,2013-09-11 10:42:00,
2013-09-11 06:52:00,67.1,67.1,30.01,ENE,68,0.0,0.0,100,0.00,,OVC004,0.00,16.00,VWS V14.01,2013-09-11 10:52:00,
2013-09-11 07:13:00,67.6,67.6,30.01,ENE,68,0.0,0.0,100,0.00,,OVC004,0.00,26.00,VWS V14.01,2013-09-11 11:13:00,
2013-09-11 07:23:00,67.6,67.6,30.01,ENE,68,0.0,0.0,100,0.00,,OVC004,0.00,37.00,VWS V14.01,2013-09-11 11:23:00,
2013-09-11 07:32:00,67.8,67.8,30.01,ENE,68,0.0,0.0,100,0.00,,OVC004,0.00,47.00,VWS V14.01,2013-09-11 11:32:00,
2013-09-11 07:43:00,68.1,68.1,30.01,ENE,68,0.0,0.0,100,0.00,,OVC004,0.00,67.00,VWS V14.01,2013-09-11 11:43:00,
2013-09-11 07:52:00,68.4,68.4,30.01,ENE,68,0.0,0.0,100,0.00,,OVC004,0.00,81.00,VWS V14.01,2013-09-11 11:52:00,
2013-09-11 08:03:00,68.9,68.9,30.00,ENE,68,0.0,0.0,100,0.00,,OVC004,0.00,98.00,VWS V14.01,2013-09-11 12:03:00,
2013-09-11 08:13:00,69.3,69.3,30.00,ENE,68,0.0,0.0,100,0.00,,OVC004,0.00,83.00,VWS V14.01,2013-09-11 12:13:00,
2013-09-11 08:22:00,69.3,69.3,30.01,ENE,68,2.0,4.0,100,0.00,,OVC004,0.00,116.00,VWS V14.01,2013-09-11 12:22:00,
2013-09-11 08:32:00,69.6,69.6,30.00,ENE,68,0.0,3.0,100,0.00,,OVC002,0.00,104.00,VWS V14.01,2013-09-11 12:32:00,
2013-09-11 08:43:00,69.9,69.9,30.00,ENE,68,0.0,0.0,100,0.00,,OVC002,0.00,127.00,VWS V14.01,2013-09-11 12:43:00,
2013-09-11 08:52:00,70.3,70.3,30.00,ENE,68,0.0,2.0,100,0.00,,OVC002,0.00,137.00,VWS V14.01,2013-09-11 12:52:00,
2013-09-11 09:03:00,70.4,70.4,30.00,ENE,68,0.0,0.0,100,0.00,,OVC003,0.00,130.00,VWS V14.01,2013-09-11 13:03:00,
2013-09-11 09:13:00,70.8,70.8,30.00,ENE,68,3.0,4.0,100,0.00,,OVC003,0.00,104.00,VWS V14.01,2013-09-11 13:13:00,
2013-09-11 09:23:00,70.9,70.9,30.00,ENE,68,2.0,4.0,100,0.00,,OVC003,0.00,111.00,VWS V14.01,2013-09-11 13:23:00,
2013-09-11 09:33:00,71.1,70.8,30.00,ENE,68,3.0,5.0,99,0.00,,OVC003,0.00,156.00,VWS V14.01,2013-09-11 13:33:00,
2013-09-11 09:43:00,71.6,71.0,30.00,ENE,68,3.0,4.0,98,0.00,,OVC003,0.00,97.00,VWS V14.01,2013-09-11 13:43:00,
2013-09-11 09:52:00,72.0,71.1,30.00,ENE,68,2.0,5.0,97,0.00,,OVC003,0.00,70.00,VWS V14.01,2013-09-11 13:52:00,
2013-09-11 10:02:00,72.7,71.5,29.99,ENE,68,0.0,3.0,96,0.00,,OVC002,0.00,63.00,VWS V14.01,2013-09-11 14:02:00,
2013-09-11 10:13:00,73.2,71.1,29.99,ENE,68,0.0,3.0,93,0.00,,OVC002,0.00,65.00,VWS V14.01,2013-09-11 14:13:00,
2013-09-11 10:23:00,73.5,71.4,29.99,ENE,68,0.0,0.0,93,0.00,,OVC002,0.00,65.00,VWS V14.01,2013-09-11 14:23:00,
2013-09-11 10:33:00,74.2,73.0,29.98,ENE,68,3.0,3.0,96,0.00,,OVC002,0.00,69.00,VWS V14.01,2013-09-11 14:33:00,
2013-09-11 10:43:00,76.5,73.3,29.98,WSW,252,0.0,4.0,90,0.00,,OVC002,0.00,69.00,VWS V14.01,2013-09-11 14:43:00,
2013-09-11 10:52:00,77.7,73.2,29.97,West,268,2.0,5.0,86,0.00,,OVC002,0.00,77.00,VWS V14.01,2013-09-11 14:52:00,
2013-09-11 11:02:00,78.1,72.5,29.97,NNE,27,0.0,5.0,83,0.00,,CLR,0.00,656.00,VWS V14.01,2013-09-11 15:02:00,
2013-09-11 11:13:00,78.8,73.9,29.97,NNE,27,2.0,4.0,85,0.00,,CLR,0.00,677.00,VWS V14.01,2013-09-11 15:13:00,
2013-09-11 11:23:00,79.8,74.5,29.96,WNW,284,4.0,5.0,84,0.00,,CLR,0.00,693.00,VWS V14.01,2013-09-11 15:23:00,
2013-09-11 11:33:00,81.4,74.6,29.95,West,276,0.0,8.0,80,0.00,,CLR,0.00,707.00,VWS V14.01,2013-09-11 15:33:00,
2013-09-11 11:43:00,82.2,72.7,29.95,West,261,9.0,12.0,73,0.00,,CLR,0.00,715.00,VWS V14.01,2013-09-11 15:43:00,
2013-09-11 11:53:00,83.4,74.7,29.95,WSW,245,7.0,11.0,75,0.00,,CLR,0.00,722.00,VWS V14.01,2013-09-11 15:53:00,
2013-09-11 12:02:00,83.6,74.4,29.95,West,274,5.0,12.0,74,0.00,,CLR,0.00,729.00,VWS V14.01,2013-09-11 16:02:00,
2013-09-11 12:13:00,84.9,74.0,29.95,West,264,9.0,11.0,70,0.00,,CLR,0.00,737.00,VWS V14.01,2013-09-11 16:13:00,
2013-09-11 12:23:00,85.3,74.0,29.94,West,268,5.0,11.0,69,0.00,,CLR,0.00,735.00,VWS V14.01,2013-09-11 16:23:00,
2013-09-11 12:32:00,84.5,73.7,29.93,WSW,245,9.0,13.0,70,0.00,,CLR,0.00,737.00,VWS V14.01,2013-09-11 16:32:00,
2013-09-11 12:43:00,84.7,74.7,29.93,West,262,5.0,14.0,72,0.00,,CLR,0.00,735.00,VWS V14.01,2013-09-11 16:43:00,
2013-09-11 12:52:00,84.7,75.1,29.93,West,259,10.0,10.0,73,0.00,,CLR,0.00,737.00,VWS V14.01,2013-09-11 16:52:00,
2013-09-11 13:03:00,84.7,76.3,29.93,WSW,243,4.0,10.0,76,0.00,,CLR,0.00,733.00,VWS V14.01,2013-09-11 17:03:00,
2013-09-11 13:13:00,85.5,75.9,29.93,West,261,3.0,7.0,73,0.00,,CLR,0.00,721.00,VWS V14.01,2013-09-11 17:13:00,
2013-09-11 13:22:00,85.9,75.4,29.93,West,270,3.0,9.0,71,0.00,,CLR,0.00,705.00,VWS V14.01,2013-09-11 17:22:00,
2013-09-11 13:33:00,86.1,76.4,29.92,West,269,6.0,8.0,73,0.00,,CLR,0.00,698.00,VWS V14.01,2013-09-11 17:33:00,
2013-09-11 13:42:00,87.0,73.4,29.92,West,262,5.0,11.0,64,0.00,,CLR,0.00,705.00,VWS V14.01,2013-09-11 17:42:00,
2013-09-11 13:53:00,86.5,72.4,29.91,West,270,5.0,13.0,63,0.00,,CLR,0.00,693.00,VWS V14.01,2013-09-11 17:53:00,
2013-09-11 14:02:00,87.0,72.4,29.91,WSW,247,7.0,13.0,62,0.00,,CLR,0.00,680.00,VWS V14.01,2013-09-11 18:02:00,
2013-09-11 14:12:00,87.2,72.1,29.91,West,259,6.0,14.0,61,0.00,,CLR,0.00,693.00,VWS V14.01,2013-09-11 18:12:00,
2013-09-11 14:23:00,88.2,70.5,29.91,WSW,257,9.0,15.0,56,0.00,,CLR,0.00,705.00,VWS V14.01,2013-09-11 18:23:00,
2013-09-11 14:33:00,88.6,70.4,29.90,West,261,6.0,11.0,55,0.00,,CLR,0.00,584.00,VWS V14.01,2013-09-11 18:33:00,
2013-09-11 14:42:00,88.4,73.2,29.90,West,268,9.0,15.0,61,0.00,,CLR,0.00,631.00,VWS V14.01,2013-09-11 18:42:00,
2013-09-11 14:52:00,90.3,70.9,29.90,WSW,255,11.0,17.0,53,0.00,,CLR,0.00,540.00,VWS V14.01,2013-09-11 18:52:00,
2013-09-11 15:03:00,88.8,73.1,29.90,WSW,258,9.0,16.0,60,0.00,,CLR,0.00,568.00,VWS V14.01,2013-09-11 19:03:00,
2013-09-11 15:13:00,90.3,73.0,29.90,WSW,254,6.0,12.0,57,0.00,,CLR,0.00,591.00,VWS V14.01,2013-09-11 19:13:00,
2013-09-11 15:22:00,89.0,71.3,29.90,West,259,10.0,11.0,56,0.00,,CLR,0.00,519.00,VWS V14.01,2013-09-11 19:22:00,
2013-09-11 15:32:00,87.6,71.5,29.90,WSW,253,7.0,11.0,59,0.00,,CLR,0.00,519.00,VWS V14.01,2013-09-11 19:32:00,
2013-09-11 15:43:00,87.6,71.0,29.90,West,271,7.0,13.0,58,0.00,,CLR,0.00,483.00,VWS V14.01,2013-09-11 19:43:00,
2013-09-11 15:52:00,86.3,76.2,29.89,WSW,257,6.0,15.0,72,0.00,,CLR,0.00,415.00,VWS V14.01,2013-09-11 19:52:00,
2013-09-11 16:03:00,88.4,72.8,29.88,West,264,11.0,13.0,60,0.00,,CLR,0.00,355.00,VWS V14.01,2013-09-11 20:03:00,
2013-09-11 16:13:00,87.0,74.7,29.88,WSW,249,8.0,14.0,67,0.00,,CLR,0.00,345.00,VWS V14.01,2013-09-11 20:13:00,
2013-09-11 16:23:00,86.1,73.9,29.88,WSW,240,9.0,12.0,67,0.00,,CLR,0.00,350.00,VWS V14.01,2013-09-11 20:23:00,
2013-09-11 16:33:00,86.3,70.3,29.87,WSW,257,8.0,11.0,59,0.00,,CLR,0.00,348.00,VWS V14.01,2013-09-11 20:33:00,
2013-09-11 16:42:00,85.9,73.2,29.87,WSW,256,6.0,11.0,66,0.00,,CLR,0.00,311.00,VWS V14.01,2013-09-11 20:42:00,
2013-09-11 16:52:00,84.9,72.3,29.87,WSW,257,2.0,9.0,66,0.00,,CLR,0.00,294.00,VWS V14.01,2013-09-11 20:52:00,
2013-09-11 17:03:00,85.3,74.0,29.87,WSW,252,2.0,7.0,69,0.00,,CLR,0.00,197.00,VWS V14.01,2013-09-11 21:03:00,
2013-09-11 17:13:00,84.3,74.7,29.87,West,274,2.0,4.0,73,0.00,,CLR,0.00,230.00,VWS V14.01,2013-09-11 21:13:00,
2013-09-11 17:23:00,83.8,74.2,29.85,WSW,247,4.0,6.0,73,0.00,,CLR,0.00,193.00,VWS V14.01,2013-09-11 21:23:00,
2013-09-11 17:32:00,82.6,73.9,29.85,West,263,5.0,6.0,75,0.00,,CLR,0.00,158.00,VWS V14.01,2013-09-11 21:32:00,
2013-09-11 17:43:00,82.6,73.9,29.85,SW,229,4.0,7.0,75,0.00,,CLR,0.00,139.00,VWS V14.01,2013-09-11 21:43:00,
2013-09-11 17:53:00,82.2,73.1,29.85,WSW,255,5.0,5.0,74,0.00,,CLR,0.00,105.00,VWS V14.01,2013-09-11 21:53:00,
2013-09-11 18:03:00,81.2,72.9,29.87,WSW,256,3.0,5.0,76,0.00,,CLR,0.00,86.00,VWS V14.01,2013-09-11 22:03:00,
2013-09-11 18:13:00,80.9,73.4,29.87,WSW,256,4.0,4.0,78,0.00,,CLR,0.00,53.00,VWS V14.01,2013-09-11 22:13:00,
2013-09-11 18:23:00,79.8,73.8,29.87,WSW,256,0.0,4.0,82,0.00,,CLR,0.00,23.00,VWS V14.01,2013-09-11 22:23:00,
2013-09-11 18:33:00,79.8,73.1,29.86,WSW,256,0.0,4.0,80,0.00,,CLR,0.00,18.00,VWS V14.01,2013-09-11 22:33:00,
2013-09-11 18:42:00,79.2,73.2,29.86,WSW,256,0.0,3.0,82,0.00,,CLR,0.00,12.00,VWS V14.01,2013-09-11 22:42:00,
2013-09-11 18:53:00,77.9,73.7,29.87,WSW,256,0.0,3.0,87,0.00,,CLR,0.00,7.00,VWS V14.01,2013-09-11 22:53:00,
2013-09-11 19:03:00,78.1,73.6,29.87,WSW,256,0.0,1.0,86,0.00,,CLR,0.00,0.00,VWS V14.01,2013-09-11 23:03:00,
2013-09-11 19:13:00,77.9,72.7,29.87,WSW,256,0.0,0.0,84,0.00,,CLR,0.00,0.00,VWS V14.01,2013-09-11 23:13:00,
2013-09-11 19:22:00,77.9,72.7,29.87,WSW,256,0.0,0.0,84,0.00,,CLR,0.00,0.00,VWS V14.01,2013-09-11 23:22:00,
2013-09-11 19:33:00,76.8,73.0,29.89,WSW,256,0.0,0.0,88,0.00,,CLR,0.00,0.00,VWS V14.01,2013-09-11 23:33:00,
2013-09-11 19:43:00,76.8,72.6,29.89,WSW,256,0.0,0.0,87,0.00,,CLR,0.00,0.00,VWS V14.01,2013-09-11 23:43:00,
2013-09-11 19:53:00,76.5,72.7,29.90,WSW,256,0.0,0.0,88,0.00,,CLR,0.00,0.00,VWS V14.01,2013-09-11 23:53:00,
2013-09-11 20:03:00,76.3,73.2,29.90,WSW,256,0.0,0.0,90,0.00,,CLR,0.00,0.00,VWS V14.01,2013-09-12 00:03:00,
2013-09-11 20:12:00,77.0,73.2,29.90,ENE,58,0.0,4.0,88,0.00,,CLR,0.00,0.00,VWS V14.01,2013-09-12 00:12:00,
2013-09-11 20:23:00,76.7,72.9,29.90,ENE,58,0.0,0.0,88,0.00,,CLR,0.00,0.00,VWS V14.01,2013-09-12 00:23:00,
2013-09-11 20:33:00,76.8,72.6,29.90,WSW,256,0.0,4.0,87,0.00,,CLR,0.00,0.00,VWS V14.01,2013-09-12 00:33:00,
2013-09-11 20:43:00,76.3,73.2,29.90,NE,46,10.0,11.0,90,0.00,,CLR,0.00,0.00,VWS V14.01,2013-09-12 00:43:00,
2013-09-11 20:53:00,79.6,69.0,29.90,NE,41,3.0,11.0,70,0.00,,CLR,0.00,0.00,VWS V14.01,2013-09-12 00:53:00,
2013-09-11 21:03:00,77.4,71.1,29.89,North,5,0.0,7.0,81,0.00,,CLR,0.00,0.00,VWS V14.01,2013-09-12 01:03:00,
2013-09-11 21:13:00,78.3,66.4,29.89,WNW,288,28.0,31.0,67,0.00,,CLR,0.00,0.00,VWS V14.01,2013-09-12 01:13:00,
2013-09-11 21:22:00,70.1,67.4,29.97,West,261,7.0,29.0,91,0.27,,CLR,0.27,0.00,VWS V14.01,2013-09-12 01:22:00,
2013-09-11 21:33:00,68.6,67.1,29.97,NNW,338,2.0,7.0,95,0.30,,CLR,0.30,0.00,VWS V14.01,2013-09-12 01:33:00,
2013-09-11 21:43:00,68.3,68.0,29.97,North,4,0.0,4.0,99,0.31,,CLR,0.31,0.00,VWS V14.01,2013-09-12 01:43:00,
2013-09-11 21:53:00,68.1,68.1,30.00,North,4,2.0,2.0,100,0.31,,CLR,0.31,0.00,VWS V14.01,2013-09-12 01:53:00,
2013-09-11 22:03:00,67.8,67.8,30.00,North,4,0.0,2.0,100,0.32,,,0.32,0.00,VWS V14.01,2013-09-12 02:03:00,
2013-09-11 22:12:00,67.8,67.8,30.00,North,4,0.0,0.0,100,0.34,,,0.34,0.00,VWS V14.01,2013-09-12 02:12:00,
2013-09-11 22:32:00,68.4,68.4,29.95,North,4,3.0,4.0,100,0.10,,,0.37,0.00,VWS V14.01,2013-09-12 02:32:00,
2013-09-11 22:43:00,68.1,68.1,29.95,North,4,3.0,3.0,100,0.07,,,0.37,0.00,VWS V14.01,2013-09-12 02:43:00,
2013-09-11 22:53:00,68.1,68.1,29.95,East,96,0.0,4.0,100,0.07,,,0.38,0.00,VWS V14.01,2013-09-12 02:53:00,
2013-09-11 23:03:00,67.9,67.9,29.96,East,96,0.0,3.0,100,0.07,,BKN050,0.38,0.00,VWS V14.01,2013-09-12 03:03:00,
2013-09-11 23:13:00,68.1,68.1,29.96,East,96,0.0,0.0,100,0.06,,BKN050,0.38,0.00,VWS V14.01,2013-09-12 03:13:00,
2013-09-11 23:23:00,68.1,68.1,29.97,East,96,1.0,3.0,100,0.04,,BKN050,0.38,0.00,VWS V14.01,2013-09-12 03:23:00,
2013-09-11 23:33:00,68.1,68.1,29.95,ENE,73,0.0,5.0,100,0.03,,SCT042,0.38,0.00,VWS V14.01,2013-09-12 03:33:00,
2013-09-11 23:43:00,68.1,68.1,29.95,ENE,73,0.0,0.0,100,0.01,,SCT042,0.38,0.00,VWS V14.01,2013-09-12 03:43:00,
2013-09-11 23:53:00,68.1,68.1,29.93,ENE,73,0.0,0.0,100,0.02,,SCT042,0.39,0.00,VWS V14.01,2013-09-12 03:53:00,